createdAt,value
2022-12-10T00:01:25.853Z,47.25
2022-12-10T00:03:53.761Z,47.60
2022-12-10T00:06:24.098Z,46.03
2022-12-10T00:08:51.665Z,55.28
2022-12-10T00:11:20.766Z,51.45
2022-12-10T00:13:55.099Z,52.33
2022-12-10T00:16:28.246Z,51.90
2022-12-10T00:18:56.209Z,45.92
2022-12-10T00:21:26.246Z,48.47
2022-12-10T00:23:54.280Z,47.53
2022-12-10T00:26:24.251Z,52.20
2022-12-10T00:28:52.315Z,52.45
2022-12-10T00:31:39.182Z,54.50
2022-12-10T00:34:08.859Z,52.05
2022-12-10T00:36:46.266Z,52.10
2022-12-10T00:39:18.484Z,60.53
2022-12-10T00:44:15.428Z,57.85
2022-12-10T00:46:43.425Z,58.50
2022-12-10T00:49:11.437Z,51.95
2022-12-10T00:51:38.634Z,57.33
2022-12-10T00:54:05.840Z,53.15
2022-12-10T00:56:33.815Z,54.70
2022-12-10T00:59:04.593Z,53.65
2022-12-10T01:01:44.404Z,56.15
2022-12-10T01:04:15.124Z,58.65
2022-12-10T01:06:45.424Z,50.33
2022-12-10T01:09:15.761Z,52.10
2022-12-10T01:11:44.911Z,58.58
2022-12-10T01:14:16.042Z,57.85
2022-12-10T01:16:43.483Z,56.60
2022-12-10T01:19:14.193Z,61.55
2022-12-10T01:21:41.694Z,56.70
2022-12-10T01:24:09.298Z,53.70
2022-12-10T01:26:37.220Z,66.40
2022-12-10T01:29:06.178Z,55.75
2022-12-10T01:31:38.089Z,58.33
2022-12-10T01:34:09.649Z,59.55
2022-12-10T01:36:45.095Z,57.40
2022-12-10T01:39:14.982Z,55.33
2022-12-10T01:41:51.255Z,54.83
2022-12-10T01:44:19.003Z,56.92
2022-12-10T01:46:48.803Z,51.50
2022-12-10T01:49:27.247Z,63.42
2022-12-10T01:51:58.972Z,57.22
2022-12-10T01:54:32.138Z,59.22
2022-12-10T01:57:34.141Z,61.38
2022-12-10T02:00:05.264Z,67.13
2022-12-10T02:02:50.869Z,58.13
2022-12-10T02:05:40.732Z,63.60
2022-12-10T02:08:38.957Z,66.50
2022-12-10T02:11:20.923Z,59.75
2022-12-10T02:14:06.599Z,58.08
2022-12-10T02:16:44.935Z,71.05
2022-12-10T02:59:26.784Z,70.72
2022-12-10T03:02:04.623Z,75.82
2022-12-10T03:05:03.121Z,78.93
2022-12-10T03:07:37.683Z,64.88
2022-12-10T03:10:21.511Z,71.50
2022-12-10T03:13:17.501Z,66.55
2022-12-10T03:15:50.642Z,69.55
2022-12-10T03:18:21.600Z,67.30
2022-12-10T03:20:51.165Z,70.63
2022-12-10T03:23:21.532Z,73.35
2022-12-10T03:25:51.197Z,73.13
2022-12-10T03:28:21.126Z,71.53
2022-12-10T03:30:50.659Z,69.97
2022-12-10T03:33:18.434Z,71.65
2022-12-10T03:35:46.885Z,76.78
2022-12-10T03:38:15.244Z,69.78
2022-12-10T03:40:42.831Z,71.95
2022-12-10T03:43:12.747Z,69.65
2022-12-10T03:45:41.962Z,65.07
2022-12-10T03:48:09.451Z,60.80
2022-12-10T03:50:36.790Z,66.55
2022-12-10T03:53:03.902Z,59.80
2022-12-10T03:55:31.366Z,62.67
2022-12-10T03:57:59.239Z,70.10
2022-12-10T04:00:27.030Z,63.80
2022-12-10T04:02:55.446Z,63.60
2022-12-10T04:05:23.518Z,59.85
2022-12-10T04:07:52.995Z,64.45
2022-12-10T04:10:20.265Z,62.63
2022-12-10T04:13:08.115Z,59.22
2022-12-10T04:15:57.285Z,68.18
2022-12-10T04:18:24.430Z,62.58
2022-12-10T04:21:09.878Z,59.03
2022-12-10T04:23:55.676Z,59.65
2022-12-10T04:26:41.313Z,62.28
2022-12-10T04:29:09.507Z,69.85
2022-12-10T04:31:49.322Z,66.25
2022-12-10T04:34:20.198Z,59.38
2022-12-10T04:36:48.120Z,68.38
2022-12-10T04:39:15.869Z,72.15
2022-12-10T04:41:44.917Z,73.40
2022-12-10T04:44:12.767Z,69.50
2022-12-10T04:46:40.205Z,65.75
2022-12-10T04:49:07.759Z,67.88
2022-12-10T04:51:35.117Z,73.78
2022-12-10T04:54:02.629Z,71.60
2022-12-10T04:56:31.791Z,74.35
2022-12-10T04:59:00.096Z,71.10
2022-12-10T05:01:28.382Z,70.38
2022-12-10T05:03:55.793Z,73.43
2022-12-10T05:06:22.873Z,70.55
2022-12-10T05:08:50.014Z,66.85
2022-12-10T05:11:20.384Z,64.80
2022-12-10T05:13:51.888Z,80.45
2022-12-10T05:16:20.964Z,76.63
2022-12-10T05:18:48.528Z,71.57
2022-12-10T05:21:18.425Z,65.25
2022-12-10T05:23:48.873Z,74.13
2022-12-10T05:26:23.160Z,72.13
2022-12-10T05:28:55.884Z,72.47
2022-12-10T05:31:30.683Z,62.20
2022-12-10T05:33:59.703Z,65.15
2022-12-10T05:36:30.727Z,69.95
2022-12-10T05:38:59.033Z,76.88
2022-12-10T05:41:32.828Z,81.63
2022-12-10T05:44:01.109Z,71.65
2022-12-10T05:46:31.575Z,76.93
2022-12-10T05:49:02.361Z,70.72
2022-12-10T05:51:32.393Z,67.72
2022-12-10T05:54:02.527Z,70.78
2022-12-10T05:56:29.678Z,62.03
2022-12-10T05:59:01.313Z,66.82
2022-12-10T06:01:31.538Z,75.25
2022-12-10T06:04:02.773Z,73.28
2022-12-10T06:06:33.278Z,71.45
2022-12-10T06:09:10.461Z,71.75
2022-12-10T06:11:38.175Z,69.03
2022-12-10T06:14:05.198Z,68.35
2022-12-10T06:16:34.831Z,70.57
2022-12-10T06:19:01.958Z,70.93
2022-12-10T06:21:29.332Z,73.65
2022-12-10T06:23:57.516Z,81.63
2022-12-10T06:26:26.102Z,85.15
2022-12-10T06:28:54.495Z,77.15
2022-12-10T06:31:23.597Z,73.43
2022-12-10T06:33:55.001Z,84.50
2022-12-10T06:36:23.165Z,69.43
2022-12-10T06:38:50.477Z,82.28
2022-12-10T06:41:23.765Z,86.25
2022-12-10T06:43:52.652Z,77.15
2022-12-10T06:46:22.024Z,71.25
2022-12-10T06:48:49.203Z,75.18
2022-12-10T06:51:16.893Z,76.50
2022-12-10T06:53:44.643Z,78.78
2022-12-10T06:56:21.169Z,87.43
2022-12-10T06:58:48.976Z,70.97
2022-12-10T07:01:21.472Z,78.25
2022-12-10T07:03:53.658Z,74.32
2022-12-10T07:06:25.508Z,76.30
2022-12-10T07:11:36.992Z,76.63
2022-12-10T07:14:04.267Z,75.22
2022-12-10T07:16:33.617Z,78.35
2022-12-10T07:19:02.978Z,80.30
2022-12-10T07:21:35.846Z,74.28
2022-12-10T07:24:05.702Z,74.93
2022-12-10T07:26:35.994Z,86.00
2022-12-10T07:29:05.230Z,86.78
2022-12-10T07:31:32.933Z,78.10
2022-12-10T07:34:01.334Z,78.57
2022-12-10T07:36:29.413Z,66.05
2022-12-10T07:38:56.990Z,75.63
2022-12-10T07:41:25.138Z,81.10
2022-12-10T07:43:52.402Z,80.13
2022-12-10T07:46:38.857Z,77.43
2022-12-10T07:49:06.536Z,82.32
2022-12-10T07:51:33.880Z,80.82
2022-12-10T07:54:01.045Z,76.65
2022-12-10T07:56:34.946Z,68.70
2022-12-10T07:59:02.185Z,75.03
2022-12-10T08:01:29.335Z,66.07
2022-12-10T08:03:58.210Z,70.07
2022-12-10T08:06:26.830Z,69.07
2022-12-10T08:08:55.145Z,71.78
2022-12-10T08:11:23.691Z,72.32
2022-12-10T08:13:56.964Z,70.68
2022-12-10T08:16:27.746Z,74.07
2022-12-10T08:18:58.241Z,74.13
2022-12-10T08:21:31.078Z,72.45
2022-12-10T08:23:58.979Z,72.30
2022-12-10T08:26:29.196Z,75.97
2022-12-10T08:28:57.762Z,80.50
2022-12-10T08:31:26.540Z,81.05
2022-12-10T08:33:54.308Z,79.15
2022-12-10T08:36:21.516Z,82.18
2022-12-10T08:38:48.846Z,79.05
2022-12-10T08:41:22.548Z,76.60
2022-12-10T08:43:52.036Z,75.72
2022-12-10T08:46:21.716Z,74.60
2022-12-10T08:48:48.885Z,79.32
2022-12-10T08:51:18.394Z,76.30
2022-12-10T08:53:45.972Z,81.13
2022-12-10T08:56:13.576Z,87.38
2022-12-10T08:58:41.156Z,92.13
2022-12-10T09:01:16.376Z,85.35
2022-12-10T09:03:43.577Z,81.47
2022-12-10T09:06:16.607Z,85.53
2022-12-10T09:08:43.964Z,90.85
2022-12-10T09:11:36.266Z,87.20
2022-12-10T09:16:37.305Z,99.63
2022-12-10T09:19:05.475Z,90.80
2022-12-10T09:21:33.286Z,97.07
2022-12-10T09:24:00.507Z,93.40
2022-12-10T09:26:28.133Z,92.93
2022-12-10T09:28:59.389Z,93.38
2022-12-10T09:31:28.539Z,99.75
2022-12-10T09:34:00.886Z,93.82
2022-12-10T09:36:33.358Z,102.38
2022-12-10T09:39:04.679Z,86.55
2022-12-10T09:41:43.674Z,93.28
2022-12-10T09:44:37.113Z,88.22
2022-12-10T09:47:08.676Z,86.65
2022-12-10T09:52:27.254Z,85.65
2022-12-10T09:55:01.979Z,83.07
2022-12-10T09:57:40.956Z,86.75
2022-12-10T10:00:29.746Z,91.45
2022-12-10T10:03:00.753Z,81.15
2022-12-10T10:05:30.976Z,81.68
2022-12-10T10:08:04.053Z,80.07
2022-12-10T10:10:33.268Z,82.45
2022-12-10T10:13:09.298Z,82.63
2022-12-10T10:15:39.226Z,89.10
2022-12-10T10:18:39.526Z,88.55
2022-12-10T10:21:22.647Z,78.30
2022-12-10T10:23:50.366Z,79.75
2022-12-10T10:26:17.849Z,76.82
2022-12-10T10:28:46.642Z,71.68
2022-12-10T10:31:27.718Z,75.97
2022-12-10T10:34:01.188Z,85.63
2022-12-10T10:36:34.393Z,72.75
2022-12-10T10:39:21.629Z,77.35
2022-12-10T10:41:58.114Z,79.65
2022-12-10T10:44:35.903Z,82.97
2022-12-10T10:47:03.767Z,75.63
2022-12-10T10:49:33.046Z,85.38
2022-12-10T10:52:14.941Z,76.57
2022-12-10T10:54:44.390Z,80.20
2022-12-10T10:57:36.419Z,75.85
2022-12-10T11:00:25.891Z,75.97
2022-12-10T11:02:53.614Z,84.63
2022-12-10T11:05:30.763Z,84.25
2022-12-10T11:08:14.961Z,76.45
2022-12-10T11:10:50.564Z,85.00
2022-12-10T11:13:30.682Z,90.47
2022-12-10T11:15:59.616Z,81.60
2022-12-10T11:18:39.157Z,73.75
2022-12-10T11:21:18.035Z,72.63
2022-12-10T11:23:51.053Z,81.13
2022-12-10T11:27:01.346Z,71.25
2022-12-10T11:29:40.467Z,82.45
2022-12-10T11:32:50.402Z,71.95
2022-12-10T11:38:25.753Z,69.78
2022-12-10T11:41:23.903Z,83.88
2022-12-10T11:44:20.721Z,79.18
2022-12-10T11:47:00.672Z,85.50
2022-12-10T11:49:27.774Z,79.70
2022-12-10T11:52:20.173Z,85.05
2022-12-10T11:57:28.528Z,91.13
2022-12-10T12:00:16.190Z,85.22
2022-12-10T12:03:05.932Z,70.93
2022-12-10T12:06:08.511Z,72.22
2022-12-10T12:09:06.073Z,68.30
2022-12-10T12:12:20.727Z,82.78
2022-12-10T12:14:59.545Z,81.80
2022-12-10T12:17:38.397Z,77.30
2022-12-10T12:20:18.947Z,87.53
2022-12-10T12:22:51.902Z,79.43
2022-12-10T12:40:12.208Z,81.50
2022-12-10T12:43:05.312Z,69.95
2022-12-10T12:45:51.225Z,75.28
2022-12-10T12:48:33.582Z,74.75
2022-12-10T12:51:06.152Z,76.60
2022-12-10T12:53:35.549Z,80.65
2022-12-10T12:56:17.434Z,84.88
2022-12-10T12:59:03.777Z,71.57
2022-12-10T13:01:42.530Z,59.28
2022-12-10T13:04:10.158Z,62.38
2022-12-10T13:06:45.498Z,75.63
2022-12-10T13:09:49.524Z,74.55
2022-12-10T13:12:29.636Z,74.80
2022-12-10T13:15:24.904Z,76.70
2022-12-10T13:18:21.586Z,66.18
2022-12-10T13:20:50.748Z,59.38
2022-12-10T13:23:28.843Z,58.90
2022-12-10T13:25:59.468Z,63.42
2022-12-10T13:28:26.399Z,63.83
2022-12-10T13:31:18.817Z,64.57
2022-12-10T13:33:54.115Z,59.22
2022-12-10T13:36:35.201Z,53.15
2022-12-10T13:39:07.549Z,62.40
2022-12-10T13:42:23.124Z,66.05
2022-12-10T13:45:03.142Z,53.13
2022-12-10T13:47:37.211Z,56.85
2022-12-10T13:50:26.700Z,51.88
2022-12-10T13:53:17.927Z,59.63
2022-12-10T13:56:08.534Z,55.38
2022-12-10T13:58:50.454Z,64.05
2022-12-10T14:01:47.447Z,63.92
2022-12-10T14:04:20.078Z,66.60
2022-12-10T14:06:48.200Z,62.97
2022-12-10T14:09:23.787Z,65.43
2022-12-10T14:11:59.389Z,67.35
2022-12-10T14:14:38.104Z,61.65
2022-12-10T14:17:08.150Z,61.13
2022-12-10T14:19:36.239Z,57.47
2022-12-10T14:22:14.503Z,60.60
2022-12-10T14:24:44.244Z,64.25
2022-12-10T14:27:17.886Z,59.95
2022-12-10T14:29:49.693Z,61.72
2022-12-10T14:32:20.132Z,60.10
2022-12-10T14:34:57.888Z,61.63
2022-12-10T14:37:31.731Z,73.35
2022-12-10T14:40:02.188Z,74.63
2022-12-10T14:42:30.810Z,71.45
2022-12-10T14:45:05.365Z,67.63
2022-12-10T14:47:45.228Z,70.90
2022-12-10T14:50:18.060Z,69.60
2022-12-10T14:52:54.330Z,76.17
2022-12-10T14:55:24.650Z,76.05
2022-12-10T14:57:59.886Z,76.60
2022-12-10T15:00:26.951Z,76.90
2022-12-10T15:03:01.677Z,73.75
2022-12-10T15:05:34.292Z,71.22
2022-12-10T15:08:05.706Z,80.63
2022-12-10T15:10:41.200Z,79.95
2022-12-10T15:13:18.219Z,69.50
2022-12-10T15:15:50.538Z,64.20
2022-12-10T15:18:45.462Z,81.38
2022-12-10T15:21:17.445Z,69.70
2022-12-10T15:23:47.152Z,71.18
2022-12-10T15:26:21.566Z,78.90
2022-12-10T15:28:52.839Z,74.53
2022-12-10T15:31:32.557Z,88.60
2022-12-10T15:34:08.806Z,73.10
2022-12-10T15:36:52.835Z,74.38
2022-12-10T15:39:28.645Z,70.25
2022-12-10T15:41:58.531Z,82.30
2022-12-10T15:44:31.064Z,90.72
2022-12-10T15:47:15.010Z,87.40
2022-12-10T15:49:43.955Z,78.72
2022-12-10T15:52:16.928Z,78.40
2022-12-10T15:54:48.574Z,81.72
2022-12-10T15:57:18.262Z,83.45
2022-12-10T16:00:00.668Z,74.78
2022-12-10T16:02:39.147Z,77.30
2022-12-10T16:05:12.226Z,80.68
2022-12-10T16:07:39.479Z,85.40
2022-12-10T16:10:07.739Z,79.82
2022-12-10T16:12:40.502Z,77.55
2022-12-10T16:15:13.292Z,80.88
2022-12-10T16:17:40.421Z,78.95
2022-12-10T16:20:20.045Z,85.32
2022-12-10T16:22:49.370Z,90.95
2022-12-10T16:25:18.930Z,83.65
2022-12-10T16:27:46.521Z,84.65
2022-12-10T16:30:24.509Z,80.15
2022-12-10T16:32:52.275Z,64.07
2022-12-10T16:35:19.513Z,69.38
2022-12-10T16:37:50.796Z,75.50
2022-12-10T16:40:18.399Z,76.00
2022-12-10T16:42:45.828Z,63.50
2022-12-10T16:45:17.323Z,65.53
2022-12-10T16:47:45.540Z,64.72
2022-12-10T16:50:15.145Z,68.38
2022-12-10T16:52:42.937Z,62.63
2022-12-10T16:55:15.495Z,70.07
2022-12-10T16:57:47.403Z,62.63
2022-12-10T17:00:21.057Z,77.97
2022-12-10T17:02:49.123Z,79.60
2022-12-10T17:05:34.303Z,72.70
2022-12-10T17:08:01.442Z,80.68
2022-12-10T17:10:47.556Z,71.90
2022-12-10T17:13:18.088Z,84.45
2022-12-10T17:15:45.420Z,88.57
2022-12-10T17:18:18.649Z,71.18
2022-12-10T17:20:48.286Z,67.18
2022-12-10T17:23:16.261Z,70.75
2022-12-10T17:25:45.097Z,75.53
2022-12-10T17:28:18.375Z,69.55
2022-12-10T17:30:45.995Z,69.38
2022-12-10T17:33:22.573Z,70.45
2022-12-10T17:35:52.164Z,71.80
2022-12-10T17:38:28.193Z,64.90
2022-12-10T17:40:57.601Z,75.63
2022-12-10T17:43:26.261Z,76.38
2022-12-10T17:45:56.218Z,75.47
2022-12-10T17:48:23.518Z,68.97
2022-12-10T17:50:51.006Z,65.40
2022-12-10T17:53:19.257Z,61.33
2022-12-10T17:56:03.069Z,62.15
2022-12-10T17:58:30.355Z,52.78
2022-12-10T18:00:57.977Z,70.90
2022-12-10T18:03:25.054Z,77.10
2022-12-10T18:05:53.005Z,76.82
2022-12-10T18:08:23.639Z,72.63
2022-12-10T18:10:53.824Z,62.65
2022-12-10T18:13:22.187Z,70.28
2022-12-10T18:15:49.968Z,55.78
2022-12-10T18:18:18.333Z,59.90
2022-12-10T18:20:46.115Z,70.63
2022-12-10T18:23:14.010Z,68.88
2022-12-10T18:25:56.422Z,65.60
2022-12-10T18:31:02.390Z,71.15
2022-12-10T18:33:40.127Z,56.35
2022-12-10T18:36:22.321Z,61.30
2022-12-10T18:38:52.300Z,61.95
2022-12-10T18:41:19.925Z,67.22
2022-12-10T18:43:48.412Z,63.03
2022-12-10T18:46:24.970Z,68.55
2022-12-10T18:48:56.085Z,70.07
2022-12-10T18:51:24.584Z,69.85
2022-12-10T18:53:51.913Z,69.97
2022-12-10T18:56:23.446Z,68.78
2022-12-10T18:58:53.173Z,64.53
2022-12-10T19:01:25.561Z,68.63
2022-12-10T19:03:55.044Z,74.53
2022-12-10T19:06:25.492Z,69.03
2022-12-10T19:09:17.074Z,66.65
2022-12-10T19:12:07.257Z,70.10
2022-12-10T19:14:34.386Z,67.80
2022-12-10T19:17:01.527Z,65.75
2022-12-10T19:19:28.514Z,70.43
2022-12-10T19:21:55.539Z,70.53
2022-12-10T19:24:22.567Z,75.05
2022-12-10T19:26:49.566Z,61.47
2022-12-10T19:29:20.039Z,63.20
2022-12-10T19:31:49.122Z,68.50
2022-12-10T19:34:17.548Z,66.72
2022-12-10T19:36:47.170Z,67.72
2022-12-10T19:39:18.158Z,63.83
2022-12-10T19:41:48.452Z,64.55
2022-12-10T19:44:16.165Z,59.05
2022-12-10T19:46:43.821Z,62.28
2022-12-10T19:49:12.734Z,55.67
2022-12-10T19:51:42.289Z,54.53
2022-12-10T19:54:12.732Z,51.90
2022-12-10T19:56:40.612Z,55.28
2022-12-10T19:59:17.057Z,60.20
2022-12-10T20:01:44.959Z,57.33
2022-12-10T20:04:14.477Z,65.32
2022-12-10T20:06:43.942Z,60.13
2022-12-10T20:09:19.606Z,61.45
2022-12-10T20:11:47.137Z,66.32
2022-12-10T20:14:14.327Z,62.42
2022-12-10T20:16:42.792Z,59.17
2022-12-10T20:19:20.978Z,55.05
2022-12-10T20:21:48.813Z,61.47
2022-12-10T20:24:15.957Z,51.25
2022-12-10T20:26:45.625Z,56.05
2022-12-10T20:29:18.434Z,56.70
2022-12-10T20:31:47.521Z,52.70
2022-12-10T20:34:15.359Z,54.75
2022-12-10T20:36:45.744Z,56.17
2022-12-10T20:39:35.496Z,54.97
2022-12-10T20:42:04.715Z,47.08
2022-12-10T20:44:31.934Z,53.83
2022-12-10T20:46:59.740Z,50.67
2022-12-10T20:49:28.021Z,50.45
2022-12-10T20:52:04.459Z,51.35
2022-12-10T20:54:31.854Z,46.15
2022-12-10T20:57:00.278Z,47.80
2022-12-10T20:59:31.313Z,49.58
2022-12-10T21:01:58.651Z,47.22
2022-12-10T21:04:27.955Z,48.58
2022-12-10T21:06:55.824Z,48.95
2022-12-10T21:09:23.686Z,49.53
2022-12-10T21:11:51.005Z,45.88
2022-12-10T21:14:51.460Z,57.45
2022-12-10T21:17:06.671Z,49.95
2022-12-10T21:19:34.104Z,51.63
2022-12-10T21:22:01.180Z,47.42
2022-12-10T21:24:28.379Z,46.83
2022-12-10T21:26:56.678Z,48.20
2022-12-10T21:29:25.594Z,44.92
2022-12-10T21:31:52.691Z,49.95
2022-12-10T21:34:21.749Z,63.88
2022-12-10T21:36:48.833Z,46.40
2022-12-10T21:39:18.232Z,48.80
2022-12-10T21:42:07.458Z,51.47
2022-12-10T21:44:35.089Z,46.30
2022-12-10T21:47:02.168Z,50.45
2022-12-10T21:49:30.142Z,52.53
2022-12-10T21:51:57.897Z,53.58
2022-12-10T21:54:24.915Z,51.28
2022-12-10T21:56:52.369Z,54.50
2022-12-10T21:59:19.607Z,52.30
2022-12-10T22:01:46.862Z,53.55
2022-12-10T22:04:17.503Z,58.63
2022-12-10T22:06:45.572Z,50.17
2022-12-10T22:09:13.972Z,53.75
2022-12-10T22:11:41.594Z,52.90
2022-12-10T22:14:08.687Z,49.40
2022-12-10T22:16:35.827Z,47.20
2022-12-10T22:19:03.054Z,54.70
2022-12-10T22:21:30.473Z,46.53
2022-12-10T22:24:00.403Z,60.08
2022-12-10T22:26:27.688Z,46.90
2022-12-10T22:28:54.835Z,57.45
2022-12-10T22:31:23.453Z,50.63
2022-12-10T22:33:50.594Z,54.72
2022-12-10T22:36:17.717Z,48.25
2022-12-10T22:38:45.578Z,54.45
2022-12-10T22:41:12.778Z,53.67
2022-12-10T22:43:55.060Z,52.00
2022-12-10T22:48:49.997Z,56.13
2022-12-10T22:51:17.853Z,47.90
2022-12-10T22:53:44.878Z,52.03
2022-12-10T22:56:13.624Z,49.85
2022-12-10T22:58:41.151Z,45.90
2022-12-10T23:01:16.008Z,45.95
2022-12-10T23:03:43.873Z,48.75
2022-12-10T23:06:14.018Z,51.30
2022-12-10T23:08:41.266Z,43.60
2022-12-10T23:11:10.066Z,47.92
2022-12-10T23:13:38.432Z,46.03
2022-12-10T23:16:08.644Z,49.17
2022-12-10T23:18:36.093Z,44.45
2022-12-10T23:21:03.462Z,41.35
2022-12-10T23:23:31.518Z,36.00
2022-12-10T23:26:03.727Z,42.75
2022-12-10T23:30:58.940Z,43.47
2022-12-10T23:33:26.432Z,42.80
2022-12-10T23:35:53.914Z,41.60
2022-12-10T23:38:22.067Z,39.88
2022-12-10T23:40:49.706Z,44.47
2022-12-10T23:43:23.719Z,39.53
2022-12-10T23:45:51.247Z,38.10
2022-12-10T23:48:19.162Z,41.25
2022-12-10T23:50:46.740Z,40.17
2022-12-10T23:53:13.916Z,42.92
2022-12-10T23:55:44.298Z,39.60
2022-12-10T23:58:11.466Z,36.00
